Time;durP1;ratioP1;P1;durP2;ratioP2;P2;SDS_P1;SDS_P2;PMS_P1;PMS_P2;Temp;Humidity;BMP_temperature;BMP_pressure;BME280_temperature;BME280_humidity;BME280_pressure;Samples;Min_cycle;Max_cycle;Signal;HPM_P1;HPM_P2
2022/10/30 00:02:22;;;;;;;15.60;7.70;;;;;;;;;;4992676;28;20112;-66
2022/10/30 00:04:49;;;;;;;11.75;6.65;;;;;;;;;;4992698;28;20050;-66
2022/10/30 00:07:15;;;;;;;14.27;6.75;;;;;;;;;;5005078;28;20104;-65
2022/10/30 00:09:42;;;;;;;14.50;6.97;;;;;;;;;;5011685;28;20390;-66
2022/10/30 00:12:08;;;;;;;12.63;7.38;;;;;;;;;;5012469;28;20512;-65
2022/10/30 00:14:35;;;;;;;13.23;6.38;;;;;;;;;;5012165;28;20049;-65
2022/10/30 00:17:02;;;;;;;17.30;7.22;;;;;;;;;;5012264;28;20143;-66
2022/10/30 00:19:28;;;;;;;18.75;6.72;;;;;;;;;;5011427;28;20049;-66
2022/10/30 00:21:56;;;;;;;18.45;7.35;;;;;;;;;;5011935;28;20081;-66
2022/10/30 00:24:22;;;;;;;14.85;6.18;;;;;;;;;;5012336;28;20097;-66
2022/10/30 00:26:48;;;;;;;15.93;7.00;;;;;;;;;;5011747;28;20045;-66
2022/10/30 00:29:15;;;;;;;13.48;6.68;;;;;;;;;;5011422;28;20093;-66
2022/10/30 00:31:41;;;;;;;12.73;6.28;;;;;;;;;;5012052;28;20049;-65
2022/10/30 00:34:08;;;;;;;13.57;6.38;;;;;;;;;;5011923;28;20050;-68
2022/10/30 00:36:35;;;;;;;15.23;6.22;;;;;;;;;;5012142;28;20057;-66
2022/10/30 00:39:03;;;;;;;11.77;6.00;;;;;;;;;;5011705;28;20089;-66
2022/10/30 00:41:29;;;;;;;17.52;6.75;;;;;;;;;;5014575;28;20061;-66
2022/10/30 00:43:56;;;;;;;12.80;6.30;;;;;;;;;;5016040;28;20042;-66
2022/10/30 00:46:28;;;;;;;13.45;6.00;;;;;;;;;;5011368;28;20093;-68
2022/10/30 00:49:02;;;;;;;15.73;7.03;;;;;;;;;;5010615;28;20477;-66
2022/10/30 00:51:29;;;;;;;16.77;6.40;;;;;;;;;;5010799;28;20169;-66
2022/10/30 00:53:57;;;;;;;16.25;7.05;;;;;;;;;;4995062;28;20046;-66
2022/10/30 00:56:23;;;;;;;13.52;6.53;;;;;;;;;;5000357;28;20042;-66
2022/10/30 00:58:53;;;;;;;11.27;5.93;;;;;;;;;;5015044;28;20058;-66
2022/10/30 01:01:22;;;;;;;14.13;6.20;;;;;;;;;;5015543;28;20135;-66
2022/10/30 01:03:49;;;;;;;16.33;7.68;;;;;;;;;;5015884;28;20049;-66
2022/10/30 01:06:16;;;;;;;15.20;7.60;;;;;;;;;;5027376;28;20054;-66
2022/10/30 01:08:43;;;;;;;11.52;6.38;;;;;;;;;;5014954;28;20385;-66
2022/10/30 01:11:10;;;;;;;12.25;5.97;;;;;;;;;;4994375;28;20050;-66
2022/10/30 01:13:36;;;;;;;14.73;6.68;;;;;;;;;;5010992;28;20058;-66
2022/10/30 01:16:12;;;;;;;12.68;6.57;;;;;;;;;;4996619;28;20245;-65
2022/10/30 01:18:47;;;;;;;13.10;6.40;;;;;;;;;;5013597;28;20139;-65
2022/10/30 01:21:30;;;;;;;13.15;6.32;;;;;;;;;;5030180;28;20494;-65
2022/10/30 01:24:27;;;;;;;13.43;5.68;;;;;;;;;;5019797;28;20053;-65
2022/10/30 01:27:17;;;;;;;14.18;6.57;;;;;;;;;;5008401;28;20104;-65
2022/10/30 01:30:00;;;;;;;12.43;6.95;;;;;;;;;;4993844;28;20104;-67
2022/10/30 01:32:39;;;;;;;11.25;6.90;;;;;;;;;;4994386;28;20054;-67
2022/10/30 01:35:44;;;;;;;14.68;6.90;;;;;;;;;;4994495;28;20081;-65
2022/10/30 01:38:33;;;;;;;12.50;6.70;;;;;;;;;;4991221;28;20050;-67
2022/10/30 01:41:00;;;;;;;12.30;6.32;;;;;;;;;;4997676;28;20464;-66
2022/10/30 01:43:26;;;;;;;14.95;6.20;;;;;;;;;;5015235;28;20046;-67
2022/10/30 01:46:02;;;;;;;15.02;6.57;;;;;;;;;;5015234;28;20072;-66
2022/10/30 01:48:48;;;;;;;16.35;6.70;;;;;;;;;;4997872;28;20081;-65
2022/10/30 01:51:30;;;;;;;20.00;6.75;;;;;;;;;;5012017;28;20050;-71
2022/10/30 01:54:09;;;;;;;16.15;6.85;;;;;;;;;;5019030;28;20045;-71
2022/10/30 01:56:37;;;;;;;17.70;5.70;;;;;;;;;;5022679;28;20064;-69
2022/10/30 01:59:13;;;;;;;13.68;6.88;;;;;;;;;;5036782;28;20089;-70
2022/10/30 02:01:40;;;;;;;10.90;5.80;;;;;;;;;;5037479;28;20030;-67
2022/10/30 02:04:07;;;;;;;14.93;6.28;;;;;;;;;;5038638;28;20058;-70
2022/10/30 02:06:35;;;;;;;13.75;6.32;;;;;;;;;;5034828;28;20046;-66
2022/10/30 02:09:02;;;;;;;10.80;6.10;;;;;;;;;;5033664;28;20079;-68
2022/10/30 02:11:29;;;;;;;14.05;5.68;;;;;;;;;;5032007;28;20089;-66
2022/10/30 02:13:56;;;;;;;16.90;6.57;;;;;;;;;;5025972;28;20050;-66
2022/10/30 02:16:23;;;;;;;14.85;5.93;;;;;;;;;;5025590;28;20056;-67
2022/10/30 02:18:50;;;;;;;14.32;6.20;;;;;;;;;;5034915;28;20159;-67
2022/10/30 02:21:16;;;;;;;10.07;5.80;;;;;;;;;;5036543;28;20034;-70
2022/10/30 02:23:43;;;;;;;13.65;6.10;;;;;;;;;;5036800;28;20050;-67
2022/10/30 02:26:09;;;;;;;11.68;5.63;;;;;;;;;;5036305;28;20081;-68
2022/10/30 02:28:36;;;;;;;11.63;5.93;;;;;;;;;;5035134;28;20080;-67
2022/10/30 02:31:03;;;;;;;15.32;5.57;;;;;;;;;;5027890;28;20050;-65
2022/10/30 02:33:29;;;;;;;11.93;5.72;;;;;;;;;;5020966;28;20133;-67
2022/10/30 02:35:56;;;;;;;13.50;5.85;;;;;;;;;;5018936;28;20501;-66
2022/10/30 02:38:23;;;;;;;11.35;5.75;;;;;;;;;;4996700;28;20109;-65
2022/10/30 02:40:49;;;;;;;10.63;6.03;;;;;;;;;;4996057;28;20096;-67
2022/10/30 02:43:16;;;;;;;12.88;5.93;;;;;;;;;;4995031;28;20054;-65
2022/10/30 02:45:42;;;;;;;13.52;6.13;;;;;;;;;;4994759;28;20054;-65
2022/10/30 02:48:09;;;;;;;11.10;5.88;;;;;;;;;;4994036;28;20102;-65
2022/10/30 02:50:41;;;;;;;9.93;5.32;;;;;;;;;;4994464;28;20046;-66
2022/10/30 02:53:07;;;;;;;14.90;6.18;;;;;;;;;;4994520;28;20490;-66
2022/10/30 02:55:34;;;;;;;15.27;5.50;;;;;;;;;;4994298;28;20142;-66
2022/10/30 02:58:00;;;;;;;10.57;5.68;;;;;;;;;;5010094;28;20081;-66
2022/10/30 03:00:27;;;;;;;17.85;6.53;;;;;;;;;;5013694;28;20116;-66
2022/10/30 03:02:56;;;;;;;14.60;6.47;;;;;;;;;;5013214;28;20077;-65
2022/10/30 03:05:23;;;;;;;14.02;5.63;;;;;;;;;;5013376;28;20054;-65
2022/10/30 03:07:50;;;;;;;12.70;6.78;;;;;;;;;;4999807;28;20344;-66
2022/10/30 03:10:17;;;;;;;11.13;5.75;;;;;;;;;;4993637;28;20421;-65
2022/10/30 03:12:44;;;;;;;8.45;5.68;;;;;;;;;;4993820;28;20054;-66
2022/10/30 03:15:10;;;;;;;15.40;6.13;;;;;;;;;;4993971;28;20101;-67
2022/10/30 03:17:37;;;;;;;11.55;5.68;;;;;;;;;;4993775;28;20050;-65
2022/10/30 03:20:04;;;;;;;13.02;6.60;;;;;;;;;;4992043;28;20050;-65
2022/10/30 03:22:30;;;;;;;12.82;5.93;;;;;;;;;;4993723;28;20050;-66
2022/10/30 03:24:57;;;;;;;14.82;6.05;;;;;;;;;;4993458;28;20046;-65
2022/10/30 03:27:24;;;;;;;11.25;5.13;;;;;;;;;;5003180;28;20073;-65
2022/10/30 03:29:50;;;;;;;14.73;6.30;;;;;;;;;;5012641;28;20464;-65
2022/10/30 03:32:17;;;;;;;11.75;6.13;;;;;;;;;;5012914;28;20096;-66
2022/10/30 03:34:43;;;;;;;12.35;5.97;;;;;;;;;;5012507;28;20050;-66
2022/10/30 03:37:10;;;;;;;13.55;6.03;;;;;;;;;;5012849;28;20049;-65
2022/10/30 03:39:37;;;;;;;12.85;5.78;;;;;;;;;;5012147;28;20053;-65
2022/10/30 03:42:03;;;;;;;16.50;6.30;;;;;;;;;;5012960;28;20084;-66
2022/10/30 03:44:30;;;;;;;9.57;5.63;;;;;;;;;;5012751;28;20069;-66
2022/10/30 03:46:57;;;;;;;8.63;5.03;;;;;;;;;;5013300;28;20136;-66
2022/10/30 03:49:24;;;;;;;17.50;6.47;;;;;;;;;;5011125;28;20049;-66
2022/10/30 03:51:50;;;;;;;11.85;6.05;;;;;;;;;;5012957;28;20053;-66
2022/10/30 03:54:17;;;;;;;14.75;6.40;;;;;;;;;;5012367;28;20049;-66
2022/10/30 03:56:44;;;;;;;10.10;5.43;;;;;;;;;;4996224;28;20088;-66
2022/10/30 03:59:11;;;;;;;10.55;5.45;;;;;;;;;;4992447;28;20054;-65
2022/10/30 04:01:38;;;;;;;14.70;6.28;;;;;;;;;;4992989;28;20050;-65
2022/10/30 04:04:04;;;;;;;12.38;5.75;;;;;;;;;;4993012;28;20050;-66
2022/10/30 04:06:31;;;;;;;15.73;5.85;;;;;;;;;;5006693;28;20103;-65
2022/10/30 04:08:58;;;;;;;13.77;6.68;;;;;;;;;;5011751;28;20502;-65
2022/10/30 04:11:24;;;;;;;13.65;5.65;;;;;;;;;;5012052;28;20093;-65
2022/10/30 04:13:51;;;;;;;13.02;5.35;;;;;;;;;;5012666;28;20468;-65
2022/10/30 04:16:18;;;;;;;8.48;5.93;;;;;;;;;;5012726;28;20050;-68
2022/10/30 04:18:44;;;;;;;12.63;5.75;;;;;;;;;;5012476;28;20076;-67
2022/10/30 04:21:11;;;;;;;10.13;6.13;;;;;;;;;;5013071;28;20081;-67
2022/10/30 04:23:37;;;;;;;11.63;5.47;;;;;;;;;;5013022;28;20133;-67
2022/10/30 04:26:04;;;;;;;16.30;6.22;;;;;;;;;;5002979;28;20100;-67
2022/10/30 04:28:30;;;;;;;15.43;5.35;;;;;;;;;;4993311;28;20472;-66
2022/10/30 04:30:57;;;;;;;13.77;5.90;;;;;;;;;;4993209;28;20083;-65
2022/10/30 04:33:24;;;;;;;8.85;6.13;;;;;;;;;;4993433;28;20497;-66
2022/10/30 04:35:50;;;;;;;9.50;5.10;;;;;;;;;;4993176;28;20374;-67
2022/10/30 04:38:18;;;;;;;12.07;6.28;;;;;;;;;;4992788;28;20047;-67
2022/10/30 04:40:45;;;;;;;10.50;5.72;;;;;;;;;;4993111;28;20057;-67
2022/10/30 04:43:12;;;;;;;11.35;5.05;;;;;;;;;;4993344;28;20054;-67
2022/10/30 04:45:39;;;;;;;13.10;5.78;;;;;;;;;;4992233;28;20417;-67
2022/10/30 04:48:12;;;;;;;11.45;5.13;;;;;;;;;;5028174;28;20081;-67
2022/10/30 04:50:39;;;;;;;11.40;5.45;;;;;;;;;;5012304;28;20127;-67
2022/10/30 04:53:09;;;;;;;11.88;6.10;;;;;;;;;;5013155;28;20054;-67
2022/10/30 04:55:35;;;;;;;10.63;5.07;;;;;;;;;;5012718;28;20100;-67
2022/10/30 04:58:02;;;;;;;10.52;5.53;;;;;;;;;;5012264;28;20128;-67
2022/10/30 05:00:29;;;;;;;10.77;5.40;;;;;;;;;;5012944;28;20081;-65
2022/10/30 05:03:00;;;;;;;8.07;4.82;;;;;;;;;;5013463;28;20085;-65
2022/10/30 05:05:30;;;;;;;16.13;5.38;;;;;;;;;;5005637;28;20050;-66
2022/10/30 05:07:56;;;;;;;13.25;5.95;;;;;;;;;;4993811;28;20050;-65
2022/10/30 05:10:24;;;;;;;11.85;5.53;;;;;;;;;;4994294;28;20050;-66
2022/10/30 05:12:52;;;;;;;9.38;5.47;;;;;;;;;;4992915;28;20478;-66
2022/10/30 05:15:18;;;;;;;12.73;5.47;;;;;;;;;;4992292;28;20093;-66
2022/10/30 05:17:45;;;;;;;9.27;5.28;;;;;;;;;;5007219;28;20058;-68
2022/10/30 05:20:12;;;;;;;12.85;6.10;;;;;;;;;;4990518;28;20078;-66
2022/10/30 05:22:44;;;;;;;16.08;6.50;;;;;;;;;;4992269;28;20137;-66
2022/10/30 05:25:10;;;;;;;17.90;7.03;;;;;;;;;;5006895;28;20050;-65
2022/10/30 05:27:37;;;;;;;13.98;6.30;;;;;;;;;;4994381;28;20078;-65
2022/10/30 05:30:04;;;;;;;11.80;6.13;;;;;;;;;;4994898;28;20092;-65
2022/10/30 05:32:30;;;;;;;9.18;5.95;;;;;;;;;;4995779;28;20413;-65
2022/10/30 05:34:57;;;;;;;14.27;5.70;;;;;;;;;;4995607;28;20560;-65
2022/10/30 05:37:24;;;;;;;9.32;5.97;;;;;;;;;;4995606;28;20050;-67
2022/10/30 05:39:50;;;;;;;14.55;5.65;;;;;;;;;;4994710;28;20055;-65
2022/10/30 05:42:17;;;;;;;13.23;6.47;;;;;;;;;;4995655;28;20050;-65
2022/10/30 05:44:43;;;;;;;14.07;6.85;;;;;;;;;;4995490;28;20088;-65
2022/10/30 05:47:26;;;;;;;;;;;;;;;;;;4996267;28;20058;-65
2022/10/30 05:49:53;;;;;;;10.93;5.82;;;;;;;;;;5013420;28;19922;-65
2022/10/30 05:52:20;;;;;;;13.27;5.70;;;;;;;;;;5014908;28;20608;-65
2022/10/30 05:54:46;;;;;;;20.90;6.95;;;;;;;;;;5014803;28;20042;-66
2022/10/30 05:57:13;;;;;;;11.55;5.30;;;;;;;;;;5014605;28;20089;-64
2022/10/30 05:59:39;;;;;;;16.10;6.28;;;;;;;;;;5013995;28;20252;-65
2022/10/30 06:02:06;;;;;;;11.80;5.32;;;;;;;;;;5014845;28;20201;-66
2022/10/30 06:04:33;;;;;;;12.23;6.28;;;;;;;;;;5014489;28;20046;-66
2022/10/30 06:06:59;;;;;;;11.45;5.43;;;;;;;;;;5014965;28;20140;-65
2022/10/30 06:09:26;;;;;;;15.60;6.22;;;;;;;;;;5030441;28;20050;-67
2022/10/30 06:11:54;;;;;;;16.77;6.20;;;;;;;;;;5014141;28;20428;-67
2022/10/30 06:14:21;;;;;;;11.32;5.35;;;;;;;;;;5014506;28;20509;-67
2022/10/30 06:16:47;;;;;;;15.88;6.25;;;;;;;;;;5014411;28;20145;-67
2022/10/30 06:19:14;;;;;;;11.63;5.65;;;;;;;;;;5013515;28;20054;-67
2022/10/30 06:21:44;;;;;;;12.27;5.25;;;;;;;;;;5014191;28;20469;-66
2022/10/30 06:24:11;;;;;;;14.93;5.78;;;;;;;;;;5013015;28;20459;-70
2022/10/30 06:26:38;;;;;;;12.15;5.55;;;;;;;;;;5015195;28;20115;-68
2022/10/30 06:29:04;;;;;;;8.52;5.40;;;;;;;;;;5014172;28;20559;-66
2022/10/30 06:31:31;;;;;;;14.95;5.95;;;;;;;;;;5018899;28;20125;-69
2022/10/30 06:33:58;;;;;;;12.30;5.95;;;;;;;;;;5020846;28;20460;-66
2022/10/30 06:36:24;;;;;;;13.50;5.93;;;;;;;;;;5015751;28;20054;-66
2022/10/30 06:38:51;;;;;;;11.95;5.72;;;;;;;;;;5011988;28;20089;-67
2022/10/30 06:41:18;;;;;;;12.43;5.50;;;;;;;;;;5014106;28;20092;-67
2022/10/30 06:43:44;;;;;;;12.10;5.80;;;;;;;;;;5013829;28;20089;-67
2022/10/30 06:46:11;;;;;;;10.80;5.93;;;;;;;;;;5018844;28;20099;-67
2022/10/30 06:48:37;;;;;;;13.43;6.22;;;;;;;;;;5033317;28;20088;-66
2022/10/30 06:51:04;;;;;;;14.43;6.32;;;;;;;;;;5031044;28;20046;-67
2022/10/30 06:53:31;;;;;;;16.73;6.30;;;;;;;;;;5027046;28;20500;-68
2022/10/30 06:56:01;;;;;;;8.95;5.35;;;;;;;;;;5020368;28;20176;-67
2022/10/30 06:58:28;;;;;;;17.73;6.45;;;;;;;;;;5024468;28;20045;-67
2022/10/30 07:00:55;;;;;;;13.15;5.85;;;;;;;;;;5019893;28;20124;-67
2022/10/30 07:03:22;;;;;;;13.27;5.18;;;;;;;;;;5026532;28;20046;-67
2022/10/30 07:05:48;;;;;;;13.15;5.55;;;;;;;;;;5032791;28;20168;-67
2022/10/30 07:08:15;;;;;;;14.38;5.35;;;;;;;;;;5032774;28;20144;-66
2022/10/30 07:10:41;;;;;;;11.43;5.75;;;;;;;;;;5033061;28;20188;-66
2022/10/30 07:13:08;;;;;;;11.88;5.43;;;;;;;;;;5033273;28;20132;-66
2022/10/30 07:15:35;;;;;;;20.25;6.45;;;;;;;;;;5032000;28;20060;-68
2022/10/30 07:18:02;;;;;;;10.70;5.53;;;;;;;;;;5001581;28;20046;-67
2022/10/30 07:20:32;;;;;;;11.10;5.57;;;;;;;;;;5013039;28;20045;-66
2022/10/30 07:22:59;;;;;;;9.65;5.70;;;;;;;;;;5028767;28;20050;-69
2022/10/30 07:25:25;;;;;;;12.05;4.70;;;;;;;;;;5013597;28;20512;-67
2022/10/30 07:27:53;;;;;;;10.07;5.63;;;;;;;;;;5012285;28;20512;-67
2022/10/30 07:30:21;;;;;;;15.90;5.47;;;;;;;;;;5008021;28;20096;-66
2022/10/30 07:33:01;;;;;;;11.95;5.95;;;;;;;;;;5011251;28;20104;-66
2022/10/30 07:35:29;;;;;;;14.40;5.05;;;;;;;;;;5011302;28;20052;-67
2022/10/30 07:37:59;;;;;;;15.77;5.10;;;;;;;;;;5010533;28;20476;-67
2022/10/30 07:40:25;;;;;;;16.25;4.93;;;;;;;;;;5007678;28;20081;-67
2022/10/30 07:42:59;;;;;;;12.98;5.93;;;;;;;;;;4991256;28;20050;-67
2022/10/30 07:45:27;;;;;;;8.80;5.68;;;;;;;;;;4990940;28;20050;-68
2022/10/30 07:47:53;;;;;;;12.77;5.95;;;;;;;;;;4991038;28;20473;-67
2022/10/30 07:50:21;;;;;;;12.73;5.00;;;;;;;;;;5000380;28;20509;-66
2022/10/30 07:52:48;;;;;;;12.43;6.38;;;;;;;;;;5010518;28;20112;-66
2022/10/30 07:55:15;;;;;;;14.95;5.95;;;;;;;;;;5010815;28;20053;-67
2022/10/30 07:57:41;;;;;;;10.10;5.78;;;;;;;;;;5010558;28;20093;-67
2022/10/30 08:00:10;;;;;;;12.85;6.05;;;;;;;;;;5010250;28;20077;-67
2022/10/30 08:02:37;;;;;;;9.05;4.80;;;;;;;;;;4999366;28;20050;-67
2022/10/30 08:05:05;;;;;;;11.55;5.07;;;;;;;;;;5005707;28;20697;-67
2022/10/30 08:07:32;;;;;;;11.35;4.95;;;;;;;;;;4990472;28;20097;-66
2022/10/30 08:09:59;;;;;;;14.60;4.85;;;;;;;;;;4990301;28;20086;-66
2022/10/30 08:12:26;;;;;;;9.65;4.60;;;;;;;;;;4991138;28;20082;-66
2022/10/30 08:14:52;;;;;;;11.48;4.68;;;;;;;;;;5017603;28;20088;-66
2022/10/30 08:17:20;;;;;;;16.73;4.70;;;;;;;;;;5023103;28;20461;-65
2022/10/30 08:19:46;;;;;;;8.60;4.70;;;;;;;;;;5007974;28;20476;-66
2022/10/30 08:22:13;;;;;;;11.05;4.47;;;;;;;;;;5010396;28;20049;-66
2022/10/30 08:24:40;;;;;;;14.23;4.35;;;;;;;;;;4996886;28;20631;-66
2022/10/30 08:27:06;;;;;;;12.25;4.43;;;;;;;;;;4993320;28;20185;-65
2022/10/30 08:29:35;;;;;;;9.55;3.85;;;;;;;;;;5000112;28;20058;-65
2022/10/30 08:32:02;;;;;;;8.05;3.92;;;;;;;;;;4990580;28;20509;-67
2022/10/30 08:34:31;;;;;;;12.65;4.40;;;;;;;;;;5008672;28;20054;-65
2022/10/30 08:36:58;;;;;;;7.43;4.03;;;;;;;;;;5011088;28;20056;-66
2022/10/30 08:39:25;;;;;;;6.60;3.85;;;;;;;;;;5011079;28;20054;-66
2022/10/30 08:41:52;;;;;;;9.85;3.83;;;;;;;;;;4991455;28;20494;-66
2022/10/30 08:44:18;;;;;;;14.05;5.30;;;;;;;;;;4991134;28;20096;-66
2022/10/30 08:46:45;;;;;;;16.50;3.67;;;;;;;;;;4990952;28;20141;-66
2022/10/30 08:49:12;;;;;;;6.18;3.97;;;;;;;;;;4990835;28;20433;-66
2022/10/30 08:51:39;;;;;;;11.98;4.45;;;;;;;;;;4990911;28;20093;-66
2022/10/30 08:54:05;;;;;;;10.45;3.92;;;;;;;;;;4990793;28;20058;-66
2022/10/30 08:56:32;;;;;;;9.90;3.63;;;;;;;;;;4990618;28;20117;-64
2022/10/30 08:58:58;;;;;;;12.05;4.00;;;;;;;;;;5007686;28;20046;-65
2022/10/30 09:01:25;;;;;;;9.60;3.35;;;;;;;;;;5018738;28;20124;-65
2022/10/30 09:03:52;;;;;;;13.30;4.57;;;;;;;;;;5024988;28;20505;-65
2022/10/30 09:06:18;;;;;;;18.45;5.05;;;;;;;;;;5022224;28;20042;-64
2022/10/30 09:08:45;;;;;;;11.80;4.32;;;;;;;;;;5012658;28;20077;-65
2022/10/30 09:11:12;;;;;;;11.25;4.35;;;;;;;;;;4997817;28;20109;-65
2022/10/30 09:13:39;;;;;;;11.05;4.65;;;;;;;;;;4994061;28;20058;-64
2022/10/30 09:16:05;;;;;;;9.82;3.80;;;;;;;;;;4994087;28;20125;-65
2022/10/30 09:18:32;;;;;;;9.48;3.50;;;;;;;;;;4993725;28;20113;-66
2022/10/30 09:20:58;;;;;;;10.30;3.92;;;;;;;;;;4993767;28;20142;-68
2022/10/30 09:23:30;;;;;;;9.55;3.25;;;;;;;;;;5003177;28;20107;-66
2022/10/30 09:25:57;;;;;;;10.38;3.15;;;;;;;;;;5015378;28;20046;-66
2022/10/30 09:28:23;;;;;;;9.10;3.38;;;;;;;;;;5014591;28;20058;-65
2022/10/30 09:30:55;;;;;;;11.32;3.20;;;;;;;;;;5015050;28;20088;-66
2022/10/30 09:33:22;;;;;;;10.95;3.65;;;;;;;;;;5013806;28;20046;-65
2022/10/30 09:35:48;;;;;;;10.48;3.83;;;;;;;;;;5014947;28;20046;-66
2022/10/30 09:38:15;;;;;;;10.77;3.10;;;;;;;;;;5014760;28;20400;-67
2022/10/30 09:41:13;;;;;;;9.98;3.50;;;;;;;;;;5015130;28;20112;-67
2022/10/30 09:44:08;;;;;;;10.77;3.85;;;;;;;;;;5019195;28;20286;-67
2022/10/30 09:46:38;;;;;;;12.95;4.22;;;;;;;;;;4993916;28;20086;-66
2022/10/30 09:49:43;;;;;;;12.13;3.63;;;;;;;;;;5010039;28;20085;-66
2022/10/30 09:52:38;;;;;;;8.02;3.50;;;;;;;;;;5032239;28;20050;-66
2022/10/30 09:55:24;;;;;;;11.45;3.72;;;;;;;;;;4994513;28;20047;-66
2022/10/30 09:57:59;;;;;;;11.07;3.60;;;;;;;;;;4994276;28;20050;-65
2022/10/30 10:00:44;;;;;;;9.40;2.80;;;;;;;;;;4994754;28;20493;-64
2022/10/30 10:03:19;;;;;;;11.25;4.22;;;;;;;;;;4997602;28;20064;-65
2022/10/30 10:05:54;;;;;;;7.32;3.22;;;;;;;;;;5014417;28;20041;-66
2022/10/30 10:08:25;;;;;;;10.93;3.22;;;;;;;;;;5012822;28;20046;-65
2022/10/30 10:10:57;;;;;;;9.43;3.60;;;;;;;;;;5013045;28;20112;-67
2022/10/30 10:13:29;;;;;;;10.00;3.33;;;;;;;;;;5007457;28;20145;-67
2022/10/30 10:16:19;;;;;;;8.93;2.87;;;;;;;;;;5030617;28;20434;-70
2022/10/30 10:18:47;;;;;;;7.75;3.70;;;;;;;;;;5030847;28;20308;-71
2022/10/30 10:21:25;;;;;;;9.75;3.15;;;;;;;;;;5032694;28;20488;-70
2022/10/30 10:23:57;;;;;;;12.77;3.40;;;;;;;;;;4985733;28;20052;-70
2022/10/30 10:26:35;;;;;;;9.57;3.00;;;;;;;;;;5000800;28;20121;-72
2022/10/30 10:29:38;;;;;;;8.93;2.97;;;;;;;;;;4998311;28;20127;-72
2022/10/30 10:32:23;;;;;;;;;;;;;;;;;;4996559;28;20084;-68
2022/10/30 10:34:56;;;;;;;9.02;3.50;;;;;;;;;;4999119;28;19925;-69
2022/10/30 10:37:42;;;;;;;11.68;2.95;;;;;;;;;;5002852;28;20115;-68
2022/10/30 10:40:24;;;;;;;6.65;3.70;;;;;;;;;;5000828;28;20046;-69
2022/10/30 10:43:29;;;;;;;7.95;2.90;;;;;;;;;;5003437;28;20054;-73
2022/10/30 10:45:59;;;;;;;7.35;3.00;;;;;;;;;;4999379;28;20070;-74
2022/10/30 10:49:04;;;;;;;7.82;2.85;;;;;;;;;;4998830;28;20070;-71
2022/10/30 10:51:54;;;;;;;12.38;3.47;;;;;;;;;;5005685;28;20453;-71
2022/10/30 10:54:34;;;;;;;10.27;3.72;;;;;;;;;;4996129;28;20466;-69
2022/10/30 10:57:03;;;;;;;12.30;4.00;;;;;;;;;;4992183;28;20046;-71
2022/10/30 10:59:37;;;;;;;6.70;3.45;;;;;;;;;;4997182;28;20054;-71
2022/10/30 11:02:04;;;;;;;9.13;3.20;;;;;;;;;;4991888;28;20050;-71
2022/10/30 11:04:38;;;;;;;12.27;3.28;;;;;;;;;;4998800;28;20274;-71
2022/10/30 11:07:37;;;;;;;11.38;3.20;;;;;;;;;;5005837;28;20069;-70
2022/10/30 11:10:10;;;;;;;8.98;3.28;;;;;;;;;;5002387;28;20050;-72
2022/10/30 11:12:38;;;;;;;10.10;2.92;;;;;;;;;;5000042;28;20060;-71
2022/10/30 11:15:28;;;;;;;7.85;3.30;;;;;;;;;;5005655;28;20421;-71
2022/10/30 11:18:06;;;;;;;10.07;3.40;;;;;;;;;;5001837;28;20038;-71
2022/10/30 11:21:07;;;;;;;9.20;2.97;;;;;;;;;;4999039;28;20077;-73
2022/10/30 11:23:45;;;;;;;9.20;3.50;;;;;;;;;;4999457;28;20050;-69
2022/10/30 11:26:24;;;;;;;8.55;3.42;;;;;;;;;;5005551;28;20053;-69
2022/10/30 11:29:04;;;;;;;9.75;4.22;;;;;;;;;;4997023;28;20065;-69
2022/10/30 11:31:39;;;;;;;7.78;3.65;;;;;;;;;;4999056;28;20104;-70
2022/10/30 11:34:23;;;;;;;10.40;3.55;;;;;;;;;;5000969;28;20531;-70
2022/10/30 11:36:51;;;;;;;6.25;3.63;;;;;;;;;;5000599;28;20440;-68
2022/10/30 11:39:23;;;;;;;10.07;4.30;;;;;;;;;;5002253;28;20049;-69
2022/10/30 11:41:53;;;;;;;14.32;5.80;;;;;;;;;;5001564;28;20567;-69
2022/10/30 11:44:22;;;;;;;13.15;4.47;;;;;;;;;;5002532;28;20172;-69
2022/10/30 11:46:49;;;;;;;11.57;4.28;;;;;;;;;;4996533;28;20077;-69
2022/10/30 11:49:44;;;;;;;9.98;3.63;;;;;;;;;;4996066;28;20092;-69
2022/10/30 11:52:12;;;;;;;11.32;3.38;;;;;;;;;;4996019;28;20050;-69
2022/10/30 11:54:39;;;;;;;12.75;3.38;;;;;;;;;;4978443;28;20148;-70
2022/10/30 11:57:21;;;;;;;8.43;3.35;;;;;;;;;;4998694;28;20046;-67
2022/10/30 11:59:50;;;;;;;10.35;3.60;;;;;;;;;;4998375;28;20061;-68
2022/10/30 12:02:28;;;;;;;8.52;3.83;;;;;;;;;;4996265;28;20050;-69
2022/10/30 12:04:59;;;;;;;9.38;3.63;;;;;;;;;;4997762;28;20505;-69
2022/10/30 12:07:31;;;;;;;10.57;3.53;;;;;;;;;;4996035;28;20569;-67
2022/10/30 12:09:58;;;;;;;9.95;3.33;;;;;;;;;;4998145;28;20505;-68
2022/10/30 12:12:41;;;;;;;6.35;4.10;;;;;;;;;;4987120;28;20186;-68
2022/10/30 12:15:25;;;;;;;;;;;;;;;;;;4999341;28;20092;-68
2022/10/30 12:17:59;;;;;;;12.00;4.45;;;;;;;;;;5000939;28;20019;-74
2022/10/30 12:20:26;;;;;;;8.98;3.63;;;;;;;;;;4987130;28;20390;-72
2022/10/30 12:22:54;;;;;;;7.78;3.85;;;;;;;;;;4988754;28;20111;-74
2022/10/30 12:25:26;;;;;;;11.13;4.53;;;;;;;;;;4990806;28;20057;-71
2022/10/30 12:28:04;;;;;;;10.80;4.20;;;;;;;;;;4997669;28;20509;-70
2022/10/30 12:30:36;;;;;;;11.85;4.07;;;;;;;;;;4998806;28;20050;-73
2022/10/30 12:33:05;;;;;;;;;;;;;;;;;;4984239;28;20445;-70
2022/10/30 12:35:37;;;;;;;9.63;3.75;;;;;;;;;;5002039;28;19925;-70
2022/10/30 12:38:06;;;;;;;6.93;2.97;;;;;;;;;;5001579;28;20136;-71
2022/10/30 12:40:40;;;;;;;9.82;3.75;;;;;;;;;;4986210;28;20575;-73
2022/10/30 12:43:26;;;;;;;9.55;3.25;;;;;;;;;;5004147;28;20073;-72
2022/10/30 12:46:22;;;;;;;9.68;3.83;;;;;;;;;;5003004;28;20391;-75
2022/10/30 12:49:02;;;;;;;6.45;3.65;;;;;;;;;;5000437;28;20058;-70
2022/10/30 12:51:34;;;;;;;8.48;3.30;;;;;;;;;;5005351;28;20413;-70
2022/10/30 12:54:06;;;;;;;7.10;3.08;;;;;;;;;;5010016;28;20433;-73
2022/10/30 12:56:35;;;;;;;;;;;;;;;;;;5006225;28;20054;-75
2022/10/30 12:59:30;;;;;;;8.52;3.38;;;;;;;;;;5009006;28;19925;-73
2022/10/30 13:02:12;;;;;;;7.57;3.30;;;;;;;;;;5016517;28;20046;-71
2022/10/30 13:04:40;;;;;;;;;;;;;;;;;;5005007;28;20050;-71
2022/10/30 13:07:26;;;;;;;9.70;3.22;;;;;;;;;;5005900;28;19926;-74
2022/10/30 13:10:12;;;;;;;8.10;2.80;;;;;;;;;;5001287;28;20042;-69
2022/10/30 13:12:40;;;;;;;7.90;3.00;;;;;;;;;;5005144;28;20057;-72
2022/10/30 13:15:30;;;;;;;11.07;3.95;;;;;;;;;;5014517;28;20081;-73
2022/10/30 13:18:05;;;;;;;8.32;3.55;;;;;;;;;;5000130;28;20054;-72
2022/10/30 13:21:27;;;;;;;9.80;3.08;;;;;;;;;;4975192;28;20053;-73
2022/10/30 13:24:02;;;;;;;6.30;3.40;;;;;;;;;;4997853;28;20065;-73
2022/10/30 13:26:40;;;;;;;8.43;3.95;;;;;;;;;;5008517;28;20050;-74
2022/10/30 13:29:13;;;;;;;10.57;4.50;;;;;;;;;;5014093;28;20104;-70
2022/10/30 13:32:03;;;;;;;11.48;5.93;;;;;;;;;;4985782;28;20138;-68
2022/10/30 13:34:39;;;;;;;16.65;6.50;;;;;;;;;;4999963;28;20054;-72
2022/10/30 13:37:18;;;;;;;15.75;5.07;;;;;;;;;;5000966;28;20046;-72
2022/10/30 13:40:30;;;;;;;12.52;5.22;;;;;;;;;;5014441;28;20053;-72
2022/10/30 13:43:18;;;;;;;12.18;6.28;;;;;;;;;;5001700;28;20050;-69
2022/10/30 13:45:55;;;;;;;13.18;5.97;;;;;;;;;;4998953;28;20093;-76
2022/10/30 13:48:34;;;;;;;16.73;6.90;;;;;;;;;;5001309;28;20088;-71
2022/10/30 13:51:12;;;;;;;12.82;6.80;;;;;;;;;;4999109;28;20061;-70
2022/10/30 13:53:40;;;;;;;13.57;6.72;;;;;;;;;;4998109;28;20133;-74
2022/10/30 13:56:09;;;;;;;14.88;7.15;;;;;;;;;;5009812;28;20372;-71
2022/10/30 13:58:39;;;;;;;15.63;6.18;;;;;;;;;;5008931;28;20054;-69
2022/10/30 14:01:16;;;;;;;9.70;4.53;;;;;;;;;;5000269;28;20531;-70
2022/10/30 14:03:52;;;;;;;9.15;4.53;;;;;;;;;;4999125;28;20077;-73
2022/10/30 14:06:56;;;;;;;7.82;3.47;;;;;;;;;;5001925;28;20111;-73
2022/10/30 14:10:08;;;;;;;10.18;3.78;;;;;;;;;;5000924;28;20049;-73
2022/10/30 14:12:56;;;;;;;11.63;4.10;;;;;;;;;;4969978;28;20089;-71
2022/10/30 14:15:46;;;;;;;11.05;3.35;;;;;;;;;;5000059;28;20054;-69
2022/10/30 14:18:14;;;;;;;8.50;3.58;;;;;;;;;;5010932;28;20042;-72
2022/10/30 14:20:51;;;;;;;10.38;3.65;;;;;;;;;;4998182;28;20054;-71
2022/10/30 14:23:21;;;;;;;10.40;3.15;;;;;;;;;;5004816;28;20046;-74
2022/10/30 14:26:10;;;;;;;13.20;4.60;;;;;;;;;;4999160;28;20058;-73
2022/10/30 14:28:50;;;;;;;8.75;3.55;;;;;;;;;;5010030;28;20049;-79
2022/10/30 14:31:18;;;;;;;10.73;3.00;;;;;;;;;;4999682;28;20046;-75
2022/10/30 14:33:52;;;;;;;9.02;3.83;;;;;;;;;;5007489;28;20053;-73
2022/10/30 14:36:24;;;;;;;9.40;2.90;;;;;;;;;;5003693;28;20060;-71
2022/10/30 14:38:58;;;;;;;11.30;3.72;;;;;;;;;;5001483;28;20397;-74
2022/10/30 14:41:25;;;;;;;7.85;3.30;;;;;;;;;;5001814;28;20050;-73
2022/10/30 14:44:20;;;;;;;5.05;2.65;;;;;;;;;;5001919;28;20045;-75
2022/10/30 14:46:56;;;;;;;6.80;3.15;;;;;;;;;;5000872;28;20050;-68
2022/10/30 14:49:47;;;;;;;9.90;3.53;;;;;;;;;;5000222;28;20062;-68
2022/10/30 14:52:38;;;;;;;10.77;3.22;;;;;;;;;;5002415;28;20057;-69
2022/10/30 14:55:27;;;;;;;12.00;4.10;;;;;;;;;;4998129;28;20494;-67
2022/10/30 14:58:00;;;;;;;14.02;3.83;;;;;;;;;;4993448;28;20049;-67
2022/10/30 15:00:41;;;;;;;9.02;3.60;;;;;;;;;;5001715;28;20061;-71
2022/10/30 15:03:12;;;;;;;6.82;2.85;;;;;;;;;;5003926;28;20050;-73
2022/10/30 15:05:54;;;;;;;9.98;3.15;;;;;;;;;;5002836;28;20054;-71